Aérodrome :
LOGIN :

S'inscrire | Disclaimer

   EN    FR    IT 

 










Légende :    VFR   VFR Marginal   IFR   IFR Intensif   IFR Très Intensif
Visi : 
Plafond : 
>= 8 km
>= 3000ft
5 à 8 km
1000 à 3000 ft
1500m à 5 km
500 à 1000 ft
800 à 1500m
200 à 500 ft
< 800m
< 200 ft
Symboles :   Orages  Brouillard  Fortes neiges  Fortes précipitations  Vent > 20 kt
SIGMETs :   Divers  Orages  Givrage  Turbulence  Onde Orograph.  Cendres Volcan.






- Altitude de l'aérodrome : 219 ft
- Code IATA : DNR


LFRD - Dinard

DERNIER METAR :
  • 240230Z AUTO 08005KT 5000 BR NSC M00/M01 Q1023 NOSIG

METARs EXPIRÉS :
  • 240200Z AUTO 07004KT 5000 BR NSC 00/M01 Q1023 NOSIG
  • 240130Z AUTO 05004KT 030V090 5000 BR NSC 00/M01 Q1024 NOSIG
  • 240100Z AUTO 05004KT 5000 BR NSC 00/M01 Q1024 NOSIG
  • 240030Z AUTO 05004KT 6000 NSC 01/M01 Q1024 TEMPO 3000 BR
  • 240000Z AUTO 05004KT 020V090 6000 NSC 01/M01 Q1024 TEMPO 3000 BR

TAF TAF LFRD
Valide du 24 à 00h jusqu'au 25 à 00h UTC


232300Z 2400/2424 VRB05KT 6000 NSC
TEMPO 2400/2409 3000 BR
BECMG 2411/2413 BKN005
PROB30
TEMPO 2411/2418 3000 DZ BR BKN002
TEMPO 2413/2417 BKN015
TEMPO 2418/2424 1500 DZ BR BKN002
PROB40
TEMPO 2420/2424 0500 FG VV///
ATIS : +33 2 99 16 81 50



MET'MAP, la Météo Aéronautique d'un coup d'oeil ! - Copyright ORBIFLY Décembre 2007 - Disclaimer

ORBIFLY MET'MAP TEAM :

Programmation & Développement : Alexandra Zaïnal
Sur une idée originale de : Baudouin d'Aumeries
Assistance à la programmation : Marc-Olivier Méhu
Soutien technique & logistique : Manuel Goepfert

Contact : metmap@orbifly.com




SOURCES & CREDITS :

   NOAA